Lammy — PBRE — position and weather

sailwx.info

Track history (hours):
 
Tides and Currents Weather Stations Pressure Air Temp Water Temp Dewpoint Dewpoint Depression Visibility Wind Speed Wind Dir Waves Ship Positions

Lammy

Last reported at 2014-Sep-02 23:33 UTC. Time now 2014-Sep-03 00:11 UTC.
Position N 53°45' W 000°18'.

Length 95 m; draft 5.8 m.

Type: Cargo ship. MMSI: 245391000.

Date/timePositionNaut miles runAvg speedWind from/ knotsBaromVisibWave heightAir tempDewpointWater temp
2014-Sep-02 23:33N 53°45' W 000°18'0 0.0
2014-Sep-02 22:34N 53°45' W 000°18'0 0.0
2014-Sep-02 21:33N 53°45' W 000°18'0 0.4
2014-Sep-02 20:34N 53°44' W 000°18'1 1.4
2014-Sep-02 19:33N 53°45' W 000°16'0 0.0
2014-Sep-02 18:33N 53°45' W 000°16'0 0.0
2014-Sep-02 17:32N 53°45' W 000°16'0 0.0
2014-Sep-02 16:34N 53°45' W 000°16'0 0.0
2014-Sep-02 15:33N 53°45' W 000°16'0 0.0
2014-Sep-02 14:34N 53°45' W 000°16'0 0.0
2014-Sep-02 13:34N 53°45' W 000°16'0 0.0
2014-Sep-02 12:33N 53°45' W 000°16'0 0.0
2014-Sep-02 11:33N 53°45' W 000°16'0 0.0
2014-Sep-02 10:33N 53°45' W 000°16'0 0.0
2014-Sep-02 09:33N 53°45' W 000°16'0 0.0
2014-Sep-02 08:32N 53°45' W 000°16'0 0.0
2014-Sep-02 07:33N 53°45' W 000°16'0 0.0
2014-Sep-02 06:33N 53°45' W 000°16'0 0.0
2014-Sep-02 05:33N 53°45' W 000°16'0 0.0
2014-Sep-02 04:34N 53°45' W 000°16'0 0.0
2014-Sep-02 03:33N 53°45' W 000°16'0 0.0
2014-Sep-02 02:33N 53°45' W 000°16'0 0.0
2014-Sep-02 01:33N 53°45' W 000°16'0 0.0
2014-Sep-02 00:33N 53°45' W 000°16'0 0.0
2014-Sep-01 23:33N 53°45' W 000°16'0 0.0
2014-Sep-01 22:34N 53°45' W 000°16'0 0.0
2014-Sep-01 21:34N 53°45' W 000°16'0 0.0
2014-Sep-01 20:33N 53°45' W 000°16'0 0.0
2014-Sep-01 19:34N 53°45' W 000°16'0 0.0
2014-Sep-01 18:34N 53°45' W 000°16'0 0.1
2014-Sep-01 17:33N 53°45' W 000°16'0 0.0
2014-Sep-01 16:34N 53°45' W 000°16'0 0.0
2014-Sep-01 15:33N 53°45' W 000°16'0 0.0
2014-Sep-01 14:33N 53°45' W 000°16'0 0.0
2014-Sep-01 13:33N 53°45' W 000°16'0 0.0
2014-Sep-01 12:33N 53°45' W 000°16'0 0.0
2014-Sep-01 11:33N 53°45' W 000°16'0 0.0
2014-Sep-01 10:32N 53°45' W 000°16'0 0.0
2014-Sep-01 09:33N 53°45' W 000°16'0 0.0
2014-Sep-01 08:34N 53°45' W 000°16'0 0.0
2014-Sep-01 07:33N 53°45' W 000°16'0 0.0
2014-Sep-01 06:33N 53°45' W 000°16'0 0.3
2014-Sep-01 05:33N 53°44' W 000°16'3 2.8
2014-Sep-01 04:33N 53°42' W 000°14'9 9.0
2014-Sep-01 03:34N 53°36' W 000°03'9 9.4
2014-Sep-01 02:34N 53°33' E 000°13'1010.0
2014-Sep-01 01:34N 53°40' E 000°25'10 9.7
2014-Sep-01 00:33N 53°46' E 000°38'19 9.7
2014-Aug-31 22:33N 53°57' E 001°04'26510.6
2014-Aug-30 21:33N 56°39' E 007°14'1211.3
2014-Aug-30 20:31N 56°46' E 007°32'10011.1
2014-Aug-30 11:30N 57°40' E 010°06'1111.9
2014-Aug-30 10:34N 57°45' E 010°25'1211.5
2014-Aug-30 09:33N 57°46' E 010°47'1211.8
2014-Aug-30 08:34N 57°43' E 011°08'1212.1
2014-Aug-30 07:33N 57°38' E 011°29'7 6.9
2014-Aug-30 06:34N 57°36' E 011°41'0 0.0
2014-Aug-30 05:34N 57°36' E 011°41'0 0.0
2014-Aug-30 04:33N 57°36' E 011°41'0 0.0
2014-Aug-30 03:33N 57°36' E 011°41'5 5.0
2014-Aug-30 02:34N 57°31' E 011°39'1211.7
2014-Aug-30 01:33N 57°20' E 011°46'1312.6
2014-Aug-30 00:33N 57°08' E 011°54'1212.0
2014-Aug-29 23:33N 56°57' E 012°01'1211.7
2014-Aug-29 22:33N 56°45' E 012°06'1311.6
2014-Aug-29 21:26N 56°33' E 012°13'2512.2
2014-Aug-29 19:24N 56°10' E 012°30'1213.7
2014-Aug-29 18:33N 56°00' E 012°41'1212.3
2014-Aug-29 17:33N 55°48' E 012°43'1212.4
2014-Aug-29 16:33N 55°36' E 012°42'1211.9
2014-Aug-29 15:33N 55°24' E 012°41'10 9.7
2014-Aug-29 14:32N 55°16' E 012°52'1211.7
2014-Aug-29 13:32N 55°15' E 013°13'1212.1
2014-Aug-29 12:33N 55°15' E 013°34'1212.4
2014-Aug-29 11:33N 55°14' E 013°55'1212.1
2014-Aug-29 10:33N 55°14' E 014°17'1211.8
2014-Aug-29 09:33N 55°23' E 014°30'1211.9
2014-Aug-29 08:33N 55°30' E 014°47'1211.6
2014-Aug-29 07:33N 55°36' E 015°05'1312.2
2014-Aug-29 06:30N 55°43' E 015°24'1712.0
2014-Aug-29 05:08N 55°51' E 015°50'7411.1
2014-Aug-28 22:30N 56°49' E 017°12'1111.7
2014-Aug-28 21:33N 56°59' E 017°19'1211.5
2014-Aug-28 20:33N 57°10' E 017°28'1111.4
2014-Aug-28 19:33N 57°21' E 017°35'1511.4
2014-Aug-28 18:15N 57°34' E 017°48'  
Track history (hours):
 
Tides and Currents Weather Stations Pressure Air Temp Water Temp Dewpoint Dewpoint Depression Visibility Wind Speed Wind Dir Waves Ship Positions

Lammy

Last reported at 2014-Sep-02 23:33 UTC. Time now 2014-Sep-03 00:11 UTC.
Position N 53°45' W 000°18'.

Length 95 m; draft 5.8 m.

Type: Cargo ship. MMSI: 245391000.

Date/timePositionNaut miles runAvg speedWind from/ knotsBaromVisibWave heightAir tempDewpointWater temp
2014-Sep-02 23:33N 53°45' W 000°18'0 0.0
2014-Sep-02 22:34N 53°45' W 000°18'0 0.0
2014-Sep-02 21:33N 53°45' W 000°18'0 0.4
2014-Sep-02 20:34N 53°44' W 000°18'1 1.4
2014-Sep-02 19:33N 53°45' W 000°16'0 0.0
2014-Sep-02 18:33N 53°45' W 000°16'0 0.0
2014-Sep-02 17:32N 53°45' W 000°16'0 0.0
2014-Sep-02 16:34N 53°45' W 000°16'0 0.0
2014-Sep-02 15:33N 53°45' W 000°16'0 0.0
2014-Sep-02 14:34N 53°45' W 000°16'0 0.0
2014-Sep-02 13:34N 53°45' W 000°16'0 0.0
2014-Sep-02 12:33N 53°45' W 000°16'0 0.0
2014-Sep-02 11:33N 53°45' W 000°16'0 0.0
2014-Sep-02 10:33N 53°45' W 000°16'0 0.0
2014-Sep-02 09:33N 53°45' W 000°16'0 0.0
2014-Sep-02 08:32N 53°45' W 000°16'0 0.0
2014-Sep-02 07:33N 53°45' W 000°16'0 0.0
2014-Sep-02 06:33N 53°45' W 000°16'0 0.0
2014-Sep-02 05:33N 53°45' W 000°16'0 0.0
2014-Sep-02 04:34N 53°45' W 000°16'0 0.0
2014-Sep-02 03:33N 53°45' W 000°16'0 0.0
2014-Sep-02 02:33N 53°45' W 000°16'0 0.0
2014-Sep-02 01:33N 53°45' W 000°16'0 0.0
2014-Sep-02 00:33N 53°45' W 000°16'0 0.0
2014-Sep-01 23:33N 53°45' W 000°16'0 0.0
2014-Sep-01 22:34N 53°45' W 000°16'0 0.0
2014-Sep-01 21:34N 53°45' W 000°16'0 0.0
2014-Sep-01 20:33N 53°45' W 000°16'0 0.0
2014-Sep-01 19:34N 53°45' W 000°16'0 0.0
2014-Sep-01 18:34N 53°45' W 000°16'0 0.1
2014-Sep-01 17:33N 53°45' W 000°16'0 0.0
2014-Sep-01 16:34N 53°45' W 000°16'0 0.0
2014-Sep-01 15:33N 53°45' W 000°16'0 0.0
2014-Sep-01 14:33N 53°45' W 000°16'0 0.0
2014-Sep-01 13:33N 53°45' W 000°16'0 0.0
2014-Sep-01 12:33N 53°45' W 000°16'0 0.0
2014-Sep-01 11:33N 53°45' W 000°16'0 0.0
2014-Sep-01 10:32N 53°45' W 000°16'0 0.0
2014-Sep-01 09:33N 53°45' W 000°16'0 0.0
2014-Sep-01 08:34N 53°45' W 000°16'0 0.0
2014-Sep-01 07:33N 53°45' W 000°16'0 0.0
2014-Sep-01 06:33N 53°45' W 000°16'0 0.3
2014-Sep-01 05:33N 53°44' W 000°16'3 2.8
2014-Sep-01 04:33N 53°42' W 000°14'9 9.0
2014-Sep-01 03:34N 53°36' W 000°03'9 9.4
2014-Sep-01 02:34N 53°33' E 000°13'1010.0
2014-Sep-01 01:34N 53°40' E 000°25'10 9.7
2014-Sep-01 00:33N 53°46' E 000°38'19 9.7
2014-Aug-31 22:33N 53°57' E 001°04'26510.6
2014-Aug-30 21:33N 56°39' E 007°14'1211.3
2014-Aug-30 20:31N 56°46' E 007°32'10011.1
2014-Aug-30 11:30N 57°40' E 010°06'1111.9
2014-Aug-30 10:34N 57°45' E 010°25'1211.5
2014-Aug-30 09:33N 57°46' E 010°47'1211.8
2014-Aug-30 08:34N 57°43' E 011°08'1212.1
2014-Aug-30 07:33N 57°38' E 011°29'7 6.9
2014-Aug-30 06:34N 57°36' E 011°41'0 0.0
2014-Aug-30 05:34N 57°36' E 011°41'0 0.0
2014-Aug-30 04:33N 57°36' E 011°41'0 0.0
2014-Aug-30 03:33N 57°36' E 011°41'5 5.0
2014-Aug-30 02:34N 57°31' E 011°39'1211.7
2014-Aug-30 01:33N 57°20' E 011°46'1312.6
2014-Aug-30 00:33N 57°08' E 011°54'1212.0
2014-Aug-29 23:33N 56°57' E 012°01'1211.7
2014-Aug-29 22:33N 56°45' E 012°06'1311.6
2014-Aug-29 21:26N 56°33' E 012°13'2512.2
2014-Aug-29 19:24N 56°10' E 012°30'1213.7
2014-Aug-29 18:33N 56°00' E 012°41'1212.3
2014-Aug-29 17:33N 55°48' E 012°43'1212.4
2014-Aug-29 16:33N 55°36' E 012°42'1211.9
2014-Aug-29 15:33N 55°24' E 012°41'10 9.7
2014-Aug-29 14:32N 55°16' E 012°52'1211.7
2014-Aug-29 13:32N 55°15' E 013°13'1212.1
2014-Aug-29 12:33N 55°15' E 013°34'1212.4
2014-Aug-29 11:33N 55°14' E 013°55'1212.1
2014-Aug-29 10:33N 55°14' E 014°17'1211.8
2014-Aug-29 09:33N 55°23' E 014°30'1211.9
2014-Aug-29 08:33N 55°30' E 014°47'1211.6
2014-Aug-29 07:33N 55°36' E 015°05'1312.2
2014-Aug-29 06:30N 55°43' E 015°24'1712.0
2014-Aug-29 05:08N 55°51' E 015°50'7411.1
2014-Aug-28 22:30N 56°49' E 017°12'1111.7
2014-Aug-28 21:33N 56°59' E 017°19'1211.5
2014-Aug-28 20:33N 57°10' E 017°28'1111.4
2014-Aug-28 19:33N 57°21' E 017°35'1511.4
2014-Aug-28 18:15N 57°34' E 017°48'  

Dump ship's entire track history